Time;durP1;ratioP1;P1;durP2;ratioP2;P2;SDS_P1;SDS_P2;PMS_P1;PMS_P2;Temp;Humidity;BMP_temperature;BMP_pressure;BME280_temperature;BME280_humidity;BME280_pressure;Samples;Min_cycle;Max_cycle;Signal;HPM_P1;HPM_P2
2023/03/26 00:01:06;;;;;;;15.05;9.05;;;9.70;99.90;;;;;;5023832;28;20302;-75
2023/03/26 00:03:56;;;;;;;12.60;8.82;;;9.80;99.90;;;;;;5008834;28;20229;-75
2023/03/26 00:06:47;;;;;;;12.18;8.60;;;9.80;99.90;;;;;;5021510;28;20225;-76
2023/03/26 00:09:38;;;;;;;14.40;8.27;;;9.80;99.90;;;;;;5020793;28;20311;-76
2023/03/26 00:12:26;;;;;;;12.75;8.23;;;9.80;99.90;;;;;;5012045;28;20241;-76
2023/03/26 00:15:18;;;;;;;12.43;8.23;;;9.70;99.90;;;;;;5018012;28;20722;-75
2023/03/26 00:18:08;;;;;;;9.38;6.70;;;9.60;99.90;;;;;;5002172;28;20230;-74
2023/03/26 00:20:57;;;;;;;11.85;7.40;;;9.70;99.90;;;;;;5004872;28;20241;-73
2023/03/26 00:23:46;;;;;;;14.15;7.65;;;9.70;99.90;;;;;;5016996;28;20615;-74
2023/03/26 00:26:37;;;;;;;11.57;7.65;;;9.60;99.90;;;;;;5025953;28;20810;-74
2023/03/26 00:29:32;;;;;;;10.30;7.05;;;9.50;99.90;;;;;;5017656;28;20225;-74
2023/03/26 00:32:20;;;;;;;10.90;7.30;;;9.50;99.90;;;;;;5016587;28;20241;-75
2023/03/26 00:35:10;;;;;;;11.73;7.60;;;9.50;99.90;;;;;;5020011;28;20518;-74
2023/03/26 00:38:00;;;;;;;10.32;7.00;;;9.40;99.90;;;;;;5019603;28;20739;-74
2023/03/26 00:40:49;;;;;;;12.13;7.25;;;9.40;99.90;;;;;;4992403;28;20250;-74
2023/03/26 00:43:40;;;;;;;11.82;7.13;;;9.40;99.90;;;;;;5011492;28;20305;-75
2023/03/26 00:46:31;;;;;;;10.57;6.40;;;9.40;99.90;;;;;;5023953;28;20303;-74
2023/03/26 00:49:20;;;;;;;11.38;6.43;;;9.50;99.90;;;;;;5003680;28;20229;-74
2023/03/26 00:52:08;;;;;;;11.18;6.68;;;9.40;99.90;;;;;;5019376;28;20233;-75
2023/03/26 00:54:57;;;;;;;13.85;6.82;;;9.30;99.90;;;;;;5017392;28;20298;-76
2023/03/26 00:57:46;;;;;;;10.98;7.03;;;9.30;99.90;;;;;;5002228;28;20221;-75
2023/03/26 01:00:39;;;;;;;10.55;6.22;;;9.30;99.90;;;;;;5016961;28;20260;-74
2023/03/26 01:03:32;;;;;;;10.23;6.15;;;9.30;99.90;;;;;;5016935;28;20221;-75
2023/03/26 01:06:26;;;;;;;9.85;6.32;;;9.40;99.90;;;;;;5020526;28;20217;-74
2023/03/26 01:09:19;;;;;;;10.60;6.90;;;9.40;99.90;;;;;;5021557;28;20411;-75
2023/03/26 01:12:11;;;;;;;9.55;6.80;;;9.50;99.90;;;;;;5016358;28;20228;-74
2023/03/26 01:15:03;;;;;;;10.90;6.53;;;9.40;99.90;;;;;;5018089;28;20397;-74
2023/03/26 01:17:56;;;;;;;11.52;6.65;;;9.30;99.90;;;;;;5020276;28;20497;-73
2023/03/26 01:20:48;;;;;;;12.30;6.53;;;9.30;99.90;;;;;;5019809;28;20886;-73
2023/03/26 01:23:42;;;;;;;10.00;6.28;;;9.40;99.90;;;;;;5021737;28;20965;-74
2023/03/26 01:26:52;;;;;;;9.45;6.32;;;9.30;99.90;;;;;;5017565;28;20269;-71
2023/03/26 01:29:47;;;;;;;10.45;6.28;;;9.30;99.90;;;;;;5018954;28;20243;-73
2023/03/26 01:32:48;;;;;;;10.18;5.72;;;9.40;99.90;;;;;;5001393;28;20229;-75
2023/03/26 01:35:44;;;;;;;9.65;6.20;;;9.40;99.90;;;;;;5009046;28;20743;-73
2023/03/26 01:38:45;;;;;;;10.50;5.93;;;9.40;99.90;;;;;;5017122;28;20236;-73
2023/03/26 01:41:43;;;;;;;10.50;6.28;;;9.30;99.90;;;;;;5015150;28;20909;-75
2023/03/26 01:44:38;;;;;;;8.88;5.63;;;9.40;99.90;;;;;;5006220;28;20229;-77
2023/03/26 01:47:29;;;;;;;8.77;5.70;;;9.30;99.90;;;;;;5000553;28;20225;-76
2023/03/26 01:50:18;;;;;;;9.75;5.95;;;9.20;99.90;;;;;;5020318;28;20233;-75
2023/03/26 01:53:09;;;;;;;9.55;5.70;;;9.30;99.90;;;;;;5008618;28;20307;-75
2023/03/26 01:56:06;;;;;;;8.52;5.40;;;9.40;99.90;;;;;;5023587;28;20242;-76
2023/03/26 01:59:16;;;;;;;9.38;5.63;;;9.40;99.90;;;;;;5005877;28;20229;-78
2023/03/26 02:02:13;;;;;;;9.57;5.68;;;9.40;99.90;;;;;;5016950;28;20228;-77
2023/03/26 02:05:12;;;;;;;8.57;5.47;;;9.30;99.90;;;;;;4999459;28;20226;-79
2023/03/26 02:08:11;;;;;;;7.57;5.65;;;9.40;99.90;;;;;;5022511;28;20221;-78
2023/03/26 02:11:04;;;;;;;10.30;5.13;;;9.30;99.90;;;;;;5003532;28;20247;-77
2023/03/26 02:13:53;;;;;;;8.27;5.25;;;9.40;99.90;;;;;;5019420;28;20234;-77
2023/03/26 02:16:45;;;;;;;10.02;5.20;;;9.30;99.90;;;;;;5013019;28;20948;-77
2023/03/26 02:19:34;;;;;;;8.32;5.20;;;9.40;99.90;;;;;;5005291;28;20225;-78
2023/03/26 02:22:28;;;;;;;7.85;4.88;;;9.40;99.90;;;;;;5005896;28;20232;-75
2023/03/26 02:25:21;;;;;;;9.02;4.88;;;9.30;99.90;;;;;;5014892;28;20363;-74
2023/03/26 02:28:11;;;;;;;8.15;5.18;;;9.40;99.90;;;;;;4999031;28;20221;-75
2023/03/26 02:31:01;;;;;;;6.38;4.43;;;9.30;99.90;;;;;;5001247;28;20221;-75
2023/03/26 02:33:52;;;;;;;7.88;4.82;;;9.40;99.90;;;;;;5019379;28;20244;-74
2023/03/26 02:36:41;;;;;;;7.68;4.78;;;9.50;99.90;;;;;;5022992;28;20232;-75
2023/03/26 02:39:31;;;;;;;7.38;4.68;;;9.40;99.90;;;;;;4998941;28;20253;-73
2023/03/26 02:42:25;;;;;;;6.57;4.47;;;9.30;99.90;;;;;;5002111;28;20304;-74
2023/03/26 02:45:14;;;;;;;6.90;4.60;;;9.30;99.90;;;;;;5007797;28;20248;-73
2023/03/26 02:48:21;;;;;;;8.27;4.72;;;9.30;99.90;;;;;;5021589;28;20260;-73
2023/03/26 02:51:21;;;;;;;8.70;4.72;;;9.30;99.90;;;;;;5003524;28;20225;-74
2023/03/26 02:54:22;;;;;;;7.10;4.47;;;9.40;99.90;;;;;;5010669;28;20220;-73
2023/03/26 02:57:37;;;;;;;10.38;5.32;;;9.30;99.90;;;;;;5022474;28;20236;-74
2023/03/26 03:00:29;;;;;;;7.75;4.60;;;9.40;99.90;;;;;;5028528;28;20233;-76
2023/03/26 03:03:35;;;;;;;6.45;4.28;;;9.40;99.90;;;;;;5013308;28;20225;-74
2023/03/26 03:06:43;;;;;;;8.40;5.00;;;9.30;99.90;;;;;;5010146;28;20261;-77
2023/03/26 03:09:33;;;;;;;6.38;4.40;;;9.30;99.90;;;;;;5010380;28;20704;-78
2023/03/26 03:12:45;;;;;;;6.70;4.53;;;9.30;99.90;;;;;;4995554;28;20221;-74
2023/03/26 03:15:34;;;;;;;6.57;4.40;;;9.30;99.90;;;;;;5021254;28;20224;-73
2023/03/26 03:18:23;;;;;;;7.30;4.45;;;9.30;99.90;;;;;;5019900;28;20374;-72
2023/03/26 03:21:12;;;;;;;6.38;4.05;;;9.20;99.90;;;;;;5028042;28;20602;-74
2023/03/26 03:24:03;;;;;;;5.93;3.88;;;9.30;99.90;;;;;;5020928;28;20326;-73
2023/03/26 03:26:56;;;;;;;6.38;4.03;;;9.30;99.90;;;;;;5021525;28;20234;-75
2023/03/26 03:29:57;;;;;;;7.50;4.32;;;9.40;99.90;;;;;;4999807;28;20225;-74
2023/03/26 03:33:18;;;;;;;6.90;4.28;;;9.40;99.90;;;;;;5020160;28;20229;-74
2023/03/26 03:36:09;;;;;;;8.02;4.45;;;9.30;99.90;;;;;;5013499;28;20217;-72
2023/03/26 03:39:10;;;;;;;7.25;4.20;;;9.30;99.90;;;;;;5022696;28;20747;-70
2023/03/26 03:41:59;;;;;;;8.18;4.32;;;9.40;99.90;;;;;;5017766;28;20253;-70
2023/03/26 03:44:51;;;;;;;7.22;4.03;;;9.50;99.90;;;;;;5002198;28;20233;-71
2023/03/26 03:48:00;;;;;;;6.43;3.70;;;9.40;99.90;;;;;;5023900;28;20229;-74
2023/03/26 03:50:57;;;;;;;6.20;3.95;;;9.40;99.90;;;;;;5009274;28;20217;-71
2023/03/26 03:53:51;;;;;;;6.00;3.80;;;9.50;99.90;;;;;;5032689;28;20221;-74
2023/03/26 03:56:54;;;;;;;5.07;3.20;;;9.40;99.90;;;;;;5006219;28;20226;-74
2023/03/26 03:59:53;;;;;;;6.45;3.65;;;9.40;99.90;;;;;;5023483;28;20236;-74
2023/03/26 04:02:44;;;;;;;5.72;3.50;;;9.50;99.90;;;;;;5008879;28;20218;-74
2023/03/26 04:05:35;;;;;;;7.05;3.63;;;9.40;99.90;;;;;;5012800;28;20317;-75
2023/03/26 04:08:25;;;;;;;6.78;3.85;;;9.30;99.90;;;;;;5010818;28;20387;-74
2023/03/26 04:11:16;;;;;;;7.50;3.70;;;9.30;99.90;;;;;;5002472;28;20689;-73
2023/03/26 04:14:35;;;;;;;6.82;3.75;;;9.40;99.90;;;;;;5024122;28;20317;-73
2023/03/26 04:17:29;;;;;;;7.50;4.00;;;9.20;99.90;;;;;;5008262;28;20268;-74
2023/03/26 04:20:19;;;;;;;6.45;3.80;;;9.20;99.90;;;;;;5017166;28;20657;-72
2023/03/26 04:23:13;;;;;;;5.72;3.60;;;9.20;99.90;;;;;;4996269;28;20916;-73
2023/03/26 04:26:09;;;;;;;6.97;4.07;;;9.20;99.90;;;;;;5023303;28;20244;-74
2023/03/26 04:29:20;;;;;;;5.85;3.70;;;9.30;99.90;;;;;;5023303;28;20671;-73
2023/03/26 04:32:18;;;;;;;7.03;3.50;;;9.20;99.90;;;;;;5018598;28;20221;-74
2023/03/26 04:35:07;;;;;;;5.55;3.90;;;9.20;99.90;;;;;;5012349;28;20584;-74
2023/03/26 04:37:56;;;;;;;6.90;3.85;;;9.20;99.90;;;;;;5012080;28;20236;-72
2023/03/26 04:40:53;;;;;;;5.85;3.72;;;9.00;99.90;;;;;;5003878;28;20229;-73
2023/03/26 04:44:05;;;;;;;8.52;3.83;;;9.00;99.90;;;;;;5011237;28;20582;-73
2023/03/26 04:47:02;;;;;;;5.00;3.75;;;9.10;99.90;;;;;;5014835;28;20229;-74
2023/03/26 04:49:59;;;;;;;6.60;3.90;;;9.10;99.90;;;;;;4998297;28;20233;-72
2023/03/26 04:52:48;;;;;;;7.10;4.10;;;9.10;99.90;;;;;;5010078;28;20312;-74
2023/03/26 04:56:21;;;;;;;6.28;4.10;;;9.20;99.90;;;;;;5019433;28;20225;-73
2023/03/26 04:59:41;;;;;;;6.25;3.80;;;9.20;99.90;;;;;;5011799;28;20241;-73
2023/03/26 05:02:40;;;;;;;6.57;3.90;;;9.10;99.90;;;;;;5002733;28;20235;-73
2023/03/26 05:05:34;;;;;;;7.53;4.07;;;9.10;99.90;;;;;;5022830;28;20304;-72
2023/03/26 05:08:27;;;;;;;7.13;4.18;;;9.20;99.90;;;;;;5008523;28;20226;-73
2023/03/26 05:11:16;;;;;;;7.78;4.03;;;9.20;99.90;;;;;;5022212;28;20218;-73
2023/03/26 05:14:05;;;;;;;7.75;4.32;;;9.20;99.90;;;;;;5025609;28;20218;-73
2023/03/26 05:16:54;;;;;;;7.47;4.00;;;9.00;99.90;;;;;;5011984;28;20832;-73
2023/03/26 05:19:45;;;;;;;7.28;4.05;;;9.10;99.90;;;;;;5001854;28;20233;-72
2023/03/26 05:22:39;;;;;;;6.63;4.03;;;9.20;99.90;;;;;;5020888;28;20237;-78
2023/03/26 05:25:45;;;;;;;7.10;4.40;;;9.20;99.90;;;;;;5005287;28;20267;-79
2023/03/26 05:28:40;;;;;;;7.85;4.07;;;9.20;99.90;;;;;;5030618;28;20306;-79
2023/03/26 05:31:36;;;;;;;8.00;4.03;;;9.20;99.90;;;;;;5013748;28;20285;-78
2023/03/26 05:34:26;;;;;;;9.60;3.92;;;9.40;99.90;;;;;;5008679;28;20308;-75
2023/03/26 05:37:16;;;;;;;6.43;4.13;;;9.40;99.90;;;;;;5016497;28;20222;-74
2023/03/26 05:40:20;;;;;;;7.72;3.85;;;9.40;99.90;;;;;;5016006;28;20349;-72
2023/03/26 05:43:20;;;;;;;9.93;4.40;;;9.40;99.90;;;;;;5004082;28;20217;-75
2023/03/26 05:46:48;;;;;;;6.32;4.20;;;9.40;99.90;;;;;;5009324;28;20224;-75
2023/03/26 05:49:42;;;;;;;9.02;4.30;;;9.50;99.90;;;;;;5021122;28;20229;-75
2023/03/26 05:52:32;;;;;;;7.40;4.00;;;9.50;99.90;;;;;;5022993;28;20227;-76
2023/03/26 05:55:41;;;;;;;6.63;3.90;;;9.50;99.90;;;;;;5014038;28;20221;-74
2023/03/26 05:58:48;;;;;;;8.82;4.05;;;9.60;99.90;;;;;;5016393;28;20250;-75
2023/03/26 06:02:17;;;;;;;8.50;4.20;;;9.70;99.90;;;;;;5020846;28;20221;-75
2023/03/26 06:05:36;;;;;;;7.68;3.88;;;9.80;99.90;;;;;;5022918;28;20237;-73
2023/03/26 06:08:33;;;;;;;6.90;3.67;;;9.90;99.90;;;;;;5006434;28;20226;-73
2023/03/26 06:11:23;;;;;;;6.07;4.03;;;10.00;99.90;;;;;;5020942;28;20233;-73
2023/03/26 06:14:12;;;;;;;9.98;4.57;;;9.90;99.90;;;;;;5018008;28;20275;-73
2023/03/26 06:17:15;;;;;;;6.85;3.70;;;9.90;99.90;;;;;;4993613;28;20883;-73
2023/03/26 06:20:30;;;;;;;6.25;3.58;;;9.90;99.90;;;;;;4996343;28;20222;-74
2023/03/26 06:23:22;;;;;;;6.78;3.60;;;9.90;99.90;;;;;;5001282;28;20225;-73
2023/03/26 06:26:27;;;;;;;5.32;3.53;;;9.90;99.90;;;;;;5017415;28;20241;-76
2023/03/26 06:29:23;;;;;;;6.50;3.97;;;9.90;99.90;;;;;;5001393;28;20234;-75
2023/03/26 06:32:36;;;;;;;7.70;3.45;;;9.70;99.90;;;;;;5007927;28;20238;-74
2023/03/26 06:35:31;;;;;;;5.97;3.40;;;9.50;99.90;;;;;;4995151;28;20234;-71
2023/03/26 06:38:20;;;;;;;8.48;3.40;;;9.60;99.90;;;;;;5014000;28;20226;-74
2023/03/26 06:41:09;;;;;;;5.55;3.30;;;9.60;99.90;;;;;;5007283;28;20248;-71
2023/03/26 06:44:00;;;;;;;6.95;3.70;;;9.60;99.90;;;;;;5011187;28;20245;-72
2023/03/26 06:47:07;;;;;;;6.18;3.38;;;9.50;99.90;;;;;;5018635;28;20445;-71
2023/03/26 06:50:17;;;;;;;7.75;3.30;;;9.50;99.90;;;;;;5004878;28;20264;-76
2023/03/26 06:53:24;;;;;;;5.40;3.17;;;9.50;99.90;;;;;;5016675;28;20237;-76
2023/03/26 06:56:45;;;;;;;6.03;3.40;;;9.50;99.90;;;;;;4981359;28;20229;-77
2023/03/26 07:00:08;;;;;;;6.57;3.17;;;9.60;99.90;;;;;;5020309;28;20312;-73
2023/03/26 07:03:16;;;;;;;5.70;3.13;;;9.60;99.90;;;;;;5017144;28;20222;-73
2023/03/26 07:06:32;;;;;;;7.18;3.88;;;9.70;99.90;;;;;;4996149;28;20230;-75
2023/03/26 07:09:40;;;;;;;4.97;2.95;;;9.80;99.90;;;;;;5017125;28;20270;-78
2023/03/26 07:12:58;;;;;;;6.20;3.25;;;9.90;99.90;;;;;;5011449;28;20260;-76
2023/03/26 07:16:23;;;;;;;6.35;3.10;;;10.20;99.90;;;;;;4979746;28;20231;-80
2023/03/26 07:19:21;;;;;;;5.18;3.25;;;10.20;99.90;;;;;;5002516;28;20234;-79
2023/03/26 07:22:19;;;;;;;5.15;2.97;;;10.40;99.90;;;;;;5008048;28;20718;-75
2023/03/26 07:25:27;;;;;;;9.05;5.43;;;10.60;99.90;;;;;;5018200;28;20259;-74
2023/03/26 07:28:41;;;;;;;8.40;3.15;;;10.80;99.90;;;;;;5023743;28;20783;-75
2023/03/26 07:32:25;;;;;;;7.65;3.30;;;10.90;99.90;;;;;;5016199;28;20294;-74
2023/03/26 07:35:46;;;;;;;8.32;2.90;;;11.20;99.90;;;;;;5005013;28;20250;-74
2023/03/26 07:39:00;;;;;;;5.15;2.88;;;11.10;99.90;;;;;;5021378;28;20232;-72
2023/03/26 07:42:03;;;;;;;6.15;3.42;;;11.20;99.90;;;;;;5025834;28;20360;-73
2023/03/26 07:45:33;;;;;;;6.55;4.13;;;11.00;99.90;;;;;;5020454;28;20229;-74
2023/03/26 07:48:53;;;;;;;5.28;3.20;;;10.90;99.90;;;;;;5008174;28;20211;-74
2023/03/26 07:51:53;;;;;;;6.18;3.75;;;10.80;99.90;;;;;;5018350;28;20226;-74
2023/03/26 07:55:06;;;;;;;5.63;3.53;;;10.80;99.90;;;;;;5017524;28;20230;-74
2023/03/26 07:58:39;;;;;;;4.78;2.95;;;10.80;99.90;;;;;;4998816;28;20244;-74
2023/03/26 08:02:18;;;;;;;4.53;3.15;;;10.90;99.90;;;;;;5009566;28;20230;-73
2023/03/26 08:05:28;;;;;;;5.50;2.97;;;10.80;99.90;;;;;;5019219;28;20247;-73
2023/03/26 08:08:44;;;;;;;4.22;2.80;;;10.80;99.90;;;;;;5023577;28;20639;-72
2023/03/26 08:12:06;;;;;;;5.40;3.53;;;10.80;99.90;;;;;;5003473;28;20226;-75
2023/03/26 08:15:03;;;;;;;4.22;2.75;;;11.00;99.90;;;;;;5013698;28;20222;-73
2023/03/26 08:17:58;;;;;;;4.00;2.72;;;11.10;99.90;;;;;;4987978;28;20609;-73
2023/03/26 08:20:53;;;;;;;5.47;2.97;;;11.00;99.90;;;;;;4994550;28;20237;-74
2023/03/26 08:23:54;;;;;;;2.50;2.30;;;11.10;99.90;;;;;;4999256;28;20230;-74
2023/03/26 08:26:51;;;;;;;6.30;3.30;;;11.10;99.90;;;;;;5014815;28;20597;-74
2023/03/26 08:29:45;;;;;;;6.30;3.00;;;10.90;99.90;;;;;;5010130;28;20226;-75
2023/03/26 08:32:34;;;;;;;6.30;3.20;;;10.90;99.90;;;;;;4988574;28;20791;-74
2023/03/26 08:35:24;;;;;;;4.82;3.35;;;10.90;99.90;;;;;;5006794;28;20246;-74
2023/03/26 08:38:17;;;;;;;5.65;3.03;;;10.90;99.90;;;;;;5004368;28;20570;-74
2023/03/26 08:41:54;;;;;;;4.82;3.15;;;11.00;99.90;;;;;;5002345;28;20233;-74
2023/03/26 08:45:19;;;;;;;3.88;3.33;;;11.00;99.90;;;;;;4980674;28;20222;-75
2023/03/26 08:48:33;;;;;;;5.47;3.92;;;11.00;99.90;;;;;;5011660;28;20256;-76
2023/03/26 08:51:58;;;;;;;5.80;3.30;;;11.00;99.90;;;;;;5010070;28;20244;-71
2023/03/26 08:55:05;;;;;;;5.57;3.13;;;11.20;99.90;;;;;;5014673;28;20254;-74
2023/03/26 08:58:24;;;;;;;3.75;2.97;;;11.10;99.90;;;;;;5014424;28;20225;-72
2023/03/26 09:01:54;;;;;;;4.97;3.05;;;11.20;99.90;;;;;;4997191;28;20232;-73
2023/03/26 09:05:14;;;;;;;6.05;3.30;;;11.10;99.90;;;;;;4951040;28;20275;-74
2023/03/26 09:08:44;;;;;;;4.80;3.40;;;11.30;99.90;;;;;;5002222;28;20709;-74
2023/03/26 09:12:24;;;;;;;4.13;3.15;;;11.50;99.90;;;;;;5002469;28;20221;-75
2023/03/26 09:15:50;;;;;;;4.07;2.95;;;11.30;99.90;;;;;;5001839;28;20365;-74
2023/03/26 09:19:06;;;;;;;5.55;2.80;;;11.00;99.90;;;;;;4985264;28;20742;-73
2023/03/26 09:22:28;;;;;;;5.65;2.92;;;11.10;99.90;;;;;;4999210;28;21825;-74
2023/03/26 09:25:43;;;;;;;6.15;3.80;;;11.40;99.90;;;;;;4996780;28;20276;-74
2023/03/26 09:29:11;;;;;;;5.05;3.25;;;12.00;99.90;;;;;;5000414;28;20764;-72
2023/03/26 09:32:56;;;;;;;3.90;2.90;;;12.00;99.90;;;;;;4986884;28;20296;-73
2023/03/26 09:36:04;;;;;;;5.50;3.17;;;11.90;99.90;;;;;;4981066;28;20222;-72
2023/03/26 09:38:58;;;;;;;3.33;3.00;;;12.20;99.90;;;;;;4988605;28;20223;-71
2023/03/26 09:41:59;;;;;;;5.47;3.00;;;12.20;99.90;;;;;;4984795;28;20309;-72
2023/03/26 09:45:24;;;;;;;6.68;3.20;;;12.10;99.90;;;;;;4989152;28;20222;-71
2023/03/26 09:48:34;;;;;;;4.95;3.33;;;12.00;99.90;;;;;;4981350;28;20240;-71
2023/03/26 09:51:47;;;;;;;5.60;2.92;;;12.00;99.90;;;;;;5004873;28;20340;-72
2023/03/26 09:55:07;;;;;;;4.88;3.53;;;11.80;99.90;;;;;;4985415;28;20375;-73
2023/03/26 09:58:28;;;;;;;5.25;2.70;;;11.60;99.90;;;;;;4977694;28;21007;-71
2023/03/26 10:01:26;;;;;;;3.90;2.83;;;11.80;99.90;;;;;;4990152;28;20287;-68
2023/03/26 10:07:21;;;;;;;3.45;2.70;;;11.60;99.90;;;;;;5077140;27;21040;-63
2023/03/26 10:10:20;;;;;;;4.22;2.88;;;12.10;99.90;;;;;;5084651;28;20214;-63
2023/03/26 10:13:21;;;;;;;3.47;2.72;;;12.30;99.90;;;;;;5083526;28;20290;-65
2023/03/26 10:16:21;;;;;;;5.15;2.45;;;12.30;99.90;;;;;;5084494;28;20211;-63
2023/03/26 10:19:29;;;;;;;4.30;2.08;;;12.30;99.90;;;;;;5069568;28;20314;-64
2023/03/26 10:22:41;;;;;;;4.00;1.88;;;12.40;99.90;;;;;;5067523;27;20416;-63
2023/03/26 10:25:40;;;;;;;3.83;2.10;;;12.40;99.90;;;;;;5076504;28;20347;-65
2023/03/26 10:28:47;;;;;;;3.67;1.92;;;12.40;99.90;;;;;;5071780;28;20235;-65
2023/03/26 10:31:47;;;;;;;5.05;2.75;;;12.40;99.90;;;;;;5066943;28;20208;-66
2023/03/26 10:34:50;;;;;;;3.83;2.78;;;12.50;99.90;;;;;;5076286;28;20217;-67
2023/03/26 10:38:01;;;;;;;3.42;2.08;;;12.70;99.90;;;;;;5066452;28;20258;-66
2023/03/26 10:40:59;;;;;;;3.85;1.63;;;12.60;99.90;;;;;;5071230;28;20309;-65
2023/03/26 10:44:09;;;;;;;2.47;1.60;;;12.80;99.90;;;;;;5069600;28;20219;-65
2023/03/26 10:47:13;;;;;;;2.40;1.63;;;12.90;99.90;;;;;;5069482;28;20240;-64
2023/03/26 10:50:26;;;;;;;2.47;1.10;;;12.50;99.90;;;;;;5066319;28;20220;-64
2023/03/26 10:53:29;;;;;;;1.38;0.82;;;11.80;99.90;;;;;;5069849;28;20227;-64
2023/03/26 10:56:24;;;;;;;1.65;0.70;;;11.20;99.90;;;;;;5084535;27;20245;-65
2023/03/26 10:59:15;;;;;;;1.10;0.70;;;11.10;99.90;;;;;;5063030;28;20220;-63
2023/03/26 11:02:33;;;;;;;2.95;0.82;;;11.20;99.90;;;;;;5069575;28;20245;-68
2023/03/26 11:05:40;;;;;;;1.05;0.70;;;11.50;99.90;;;;;;5076737;27;20328;-65
2023/03/26 11:08:39;;;;;;;1.10;1.00;;;11.90;99.90;;;;;;5065617;28;20215;-65
2023/03/26 11:11:32;;;;;;;3.72;1.88;;;11.80;99.90;;;;;;5084894;28;20238;-63
2023/03/26 11:14:25;;;;;;;3.20;2.13;;;11.70;99.90;;;;;;5078191;28;20302;-65
2023/03/26 11:17:35;;;;;;;3.05;2.00;;;11.90;99.90;;;;;;5071187;28;20234;-62
2023/03/26 11:20:37;;;;;;;3.00;1.98;;;11.90;99.90;;;;;;5058304;28;20226;-62
2023/03/26 11:23:37;;;;;;;4.10;2.08;;;11.90;99.90;;;;;;5057092;28;20679;-63
2023/03/26 11:26:33;;;;;;;3.20;2.53;;;11.90;99.90;;;;;;5058432;28;20618;-62
2023/03/26 11:29:44;;;;;;;2.83;2.60;;;11.90;99.90;;;;;;5061306;28;20220;-63
2023/03/26 11:32:41;;;;;;;3.55;2.53;;;12.00;99.90;;;;;;5066652;28;20848;-64
2023/03/26 11:35:34;;;;;;;4.88;2.65;;;12.00;99.90;;;;;;5063123;28;20243;-65
2023/03/26 11:38:37;;;;;;;2.95;2.15;;;12.20;99.90;;;;;;5061930;28;20224;-63
2023/03/26 11:41:29;;;;;;;3.22;2.15;;;11.90;99.90;;;;;;5066357;28;20220;-64
2023/03/26 11:44:29;;;;;;;2.70;2.00;;;11.90;99.90;;;;;;5061387;28;20244;-62
2023/03/26 11:47:23;;;;;;;3.60;2.38;;;12.00;99.90;;;;;;5059601;28;20265;-66
2023/03/26 11:50:17;;;;;;;1.95;1.77;;;12.20;99.90;;;;;;5066084;28;20224;-64
2023/03/26 11:53:12;;;;;;;2.90;2.15;;;12.60;99.90;;;;;;5053297;28;20231;-65
2023/03/26 11:56:06;;;;;;;2.17;1.98;;;12.70;99.90;;;;;;5051556;28;20236;-65
2023/03/26 11:59:01;;;;;;;3.33;2.10;;;12.70;99.90;;;;;;5068867;28;20242;-64
2023/03/26 12:01:55;;;;;;;3.30;1.90;;;12.60;99.90;;;;;;5064117;28;20307;-64
2023/03/26 12:04:46;;;;;;;2.35;1.63;;;12.50;99.90;;;;;;5047208;28;20212;-63
2023/03/26 12:07:36;;;;;;;2.20;1.30;;;12.60;99.90;;;;;;5073594;28;20223;-65
2023/03/26 12:10:31;;;;;;;2.13;1.80;;;12.60;99.90;;;;;;5076169;28;20351;-64
2023/03/26 12:13:32;;;;;;;2.00;1.50;;;12.90;99.90;;;;;;5056673;28;20829;-65
2023/03/26 12:16:22;;;;;;;2.05;1.30;;;12.80;99.90;;;;;;5075887;28;20241;-65
2023/03/26 12:19:19;;;;;;;2.17;1.60;;;12.70;99.90;;;;;;5077935;28;20227;-65
2023/03/26 12:22:30;;;;;;;2.55;1.80;;;12.40;99.90;;;;;;5073920;28;20334;-69
2023/03/26 12:25:21;;;;;;;2.42;2.00;;;12.40;99.90;;;;;;5058299;28;20539;-65
2023/03/26 12:28:19;;;;;;;3.53;1.98;;;12.30;99.90;;;;;;5076936;28;20215;-66
2023/03/26 12:31:17;;;;;;;2.15;1.83;;;12.30;99.90;;;;;;5071705;28;20251;-65
2023/03/26 12:34:13;;;;;;;2.65;1.88;;;12.40;99.90;;;;;;5075640;28;20657;-65
2023/03/26 12:37:04;;;;;;;2.05;1.75;;;12.30;99.90;;;;;;5060387;28;20304;-66
2023/03/26 12:40:10;;;;;;;2.45;1.80;;;12.20;99.90;;;;;;5072562;28;20207;-66
2023/03/26 12:43:20;;;;;;;2.63;1.85;;;12.30;99.90;;;;;;5064745;28;20235;-65
2023/03/26 12:46:32;;;;;;;3.50;2.10;;;12.20;99.90;;;;;;5065509;28;20228;-64
2023/03/26 12:49:42;;;;;;;2.22;1.83;;;12.20;99.90;;;;;;5075205;28;20216;-63
2023/03/26 12:52:56;;;;;;;2.50;1.80;;;12.00;99.90;;;;;;5065483;28;20223;-65
2023/03/26 12:55:53;;;;;;;3.50;2.05;;;12.30;99.90;;;;;;5066765;28;20215;-65
2023/03/26 12:59:02;;;;;;;3.83;1.77;;;12.40;99.90;;;;;;5051586;28;20224;-64
2023/03/26 13:02:00;;;;;;;3.40;2.00;;;12.10;99.90;;;;;;5041497;28;20584;-63
2023/03/26 13:05:05;;;;;;;3.85;1.90;;;12.00;99.90;;;;;;5069138;28;20247;-65
2023/03/26 13:08:06;;;;;;;3.88;2.20;;;12.10;99.90;;;;;;5062121;28;20302;-65
2023/03/26 13:11:06;;;;;;;3.72;2.40;;;12.00;99.90;;;;;;5066578;28;20713;-65
2023/03/26 13:14:07;;;;;;;4.65;2.03;;;12.10;99.90;;;;;;5064844;28;20254;-63
2023/03/26 13:17:02;;;;;;;4.18;2.83;;;12.10;99.90;;;;;;5079078;28;20227;-64
2023/03/26 13:20:11;;;;;;;2.13;1.80;;;12.30;99.90;;;;;;5076355;28;20224;-63
2023/03/26 13:23:07;;;;;;;2.35;1.90;;;12.10;99.90;;;;;;5071717;28;20229;-64
2023/03/26 13:26:07;;;;;;;3.83;1.60;;;12.10;99.90;;;;;;5071380;28;20239;-65
2023/03/26 13:29:04;;;;;;;6.25;1.90;;;12.00;99.90;;;;;;5068510;28;20228;-64
2023/03/26 13:32:05;;;;;;;2.35;1.50;;;12.10;99.90;;;;;;5059768;28;20216;-65
2023/03/26 13:35:06;;;;;;;3.28;1.50;;;12.10;99.90;;;;;;5066360;28;20226;-65
2023/03/26 13:38:05;;;;;;;2.30;1.77;;;12.00;99.90;;;;;;5053785;28;20307;-66
2023/03/26 13:41:03;;;;;;;4.70;1.85;;;11.90;99.90;;;;;;5062004;28;20215;-65
2023/03/26 13:44:06;;;;;;;2.75;1.70;;;12.10;99.90;;;;;;5075033;28;20238;-67
2023/03/26 13:47:00;;;;;;;2.92;1.90;;;12.30;99.90;;;;;;5072114;28;20227;-65
2023/03/26 13:49:54;;;;;;;2.90;1.73;;;12.40;99.90;;;;;;5077018;28;20223;-64
2023/03/26 13:52:50;;;;;;;6.75;1.90;;;12.40;99.90;;;;;;5078543;28;20243;-66
2023/03/26 13:55:45;;;;;;;2.40;1.80;;;12.40;99.90;;;;;;5052168;28;20219;-63
2023/03/26 13:58:38;;;;;;;2.47;1.90;;;12.20;99.90;;;;;;5072493;28;20606;-63
2023/03/26 14:01:33;;;;;;;2.88;1.83;;;12.00;99.90;;;;;;5056166;28;20228;-63
2023/03/26 14:04:30;;;;;;;2.30;1.80;;;12.10;99.90;;;;;;5064731;28;20219;-65
2023/03/26 14:07:25;;;;;;;2.85;1.35;;;12.00;99.90;;;;;;5051716;28;20244;-62
2023/03/26 14:10:19;;;;;;;1.33;0.95;;;12.00;99.90;;;;;;5062809;28;20316;-63
2023/03/26 14:13:16;;;;;;;4.35;2.67;;;12.00;99.90;;;;;;5052456;28;20227;-64
2023/03/26 14:16:13;;;;;;;7.93;4.68;;;12.10;99.90;;;;;;5059236;28;20228;-63
2023/03/26 14:19:18;;;;;;;2.50;1.15;;;12.10;99.90;;;;;;5064929;28;20323;-64
2023/03/26 14:22:19;;;;;;;2.22;1.27;;;12.10;99.90;;;;;;5055686;28;20228;-64
2023/03/26 14:25:20;;;;;;;1.40;1.15;;;12.10;99.90;;;;;;5059720;28;20966;-65
2023/03/26 14:28:24;;;;;;;2.97;1.20;;;12.10;99.90;;;;;;5059701;28;20242;-63
2023/03/26 14:31:22;;;;;;;1.52;1.15;;;12.10;99.90;;;;;;5063459;28;20254;-63
2023/03/26 14:34:23;;;;;;;2.67;1.42;;;12.30;99.90;;;;;;5078077;28;20227;-64
2023/03/26 14:37:32;;;;;;;1.92;1.30;;;12.20;99.90;;;;;;5051690;28;20216;-64
2023/03/26 14:40:51;;;;;;;2.95;1.50;;;12.00;99.90;;;;;;5055751;28;20314;-63
2023/03/26 14:44:05;;;;;;;3.42;1.30;;;12.00;99.90;;;;;;5073951;28;20283;-65
2023/03/26 14:47:06;;;;;;;2.78;1.50;;;12.00;99.90;;;;;;5075041;28;20230;-64
2023/03/26 14:50:35;;;;;;;2.83;1.60;;;12.00;99.90;;;;;;5049967;28;20921;-64
2023/03/26 14:53:32;;;;;;;2.88;1.85;;;11.80;99.90;;;;;;5083617;28;20223;-63
2023/03/26 14:57:06;;;;;;;3.42;1.48;;;11.80;99.90;;;;;;5077390;28;20582;-63
2023/03/26 15:00:36;;;;;;;2.20;1.60;;;12.00;99.90;;;;;;5051092;28;20211;-63
2023/03/26 15:04:22;;;;;;;2.60;1.70;;;11.90;99.90;;;;;;5051657;28;20442;-65
2023/03/26 15:07:33;;;;;;;2.92;1.60;;;11.80;99.90;;;;;;4979238;28;20240;-63
2023/03/26 15:10:49;;;;;;;3.38;1.50;;;11.80;99.90;;;;;;4995521;28;20498;-65
2023/03/26 15:13:53;;;;;;;2.13;1.55;;;11.80;99.90;;;;;;5073288;28;20277;-65
2023/03/26 15:17:21;;;;;;;2.28;1.30;;;11.80;99.90;;;;;;5066661;28;20223;-64
2023/03/26 15:20:44;;;;;;;3.05;1.70;;;11.60;99.90;;;;;;5062107;28;20317;-65
2023/03/26 15:24:08;;;;;;;3.65;1.40;;;11.70;99.90;;;;;;5094103;28;20231;-63
2023/03/26 15:27:23;;;;;;;2.47;1.48;;;11.50;99.90;;;;;;5052378;28;20591;-64
2023/03/26 15:30:44;;;;;;;4.63;1.60;;;11.60;99.90;;;;;;5059937;28;20246;-63
2023/03/26 15:34:17;;;;;;;4.75;1.40;;;11.60;99.90;;;;;;5054347;28;20221;-63
2023/03/26 15:37:45;;;;;;;7.75;1.75;;;11.60;99.90;;;;;;5058023;28;20220;-62
2023/03/26 15:40:45;;;;;;;2.97;1.40;;;11.60;99.90;;;;;;5070781;28;20235;-64
2023/03/26 15:44:13;;;;;;;2.50;1.50;;;11.60;99.90;;;;;;5047053;28;20225;-65
2023/03/26 15:47:50;;;;;;;3.92;1.95;;;11.60;99.90;;;;;;5054021;28;20225;-65
2023/03/26 15:50:48;;;;;;;3.00;1.70;;;11.60;99.90;;;;;;5067029;28;20228;-65
2023/03/26 15:53:45;;;;;;;2.92;1.70;;;11.40;99.90;;;;;;5060347;28;20224;-65
2023/03/26 15:57:05;;;;;;;3.63;1.90;;;11.40;99.90;;;;;;5059833;28;20618;-65